Time;durP1;ratioP1;P1;durP2;ratioP2;P2;SDS_P1;SDS_P2;PMS_P1;PMS_P2;Temp;Humidity;BMP_temperature;BMP_pressure;BME280_temperature;BME280_humidity;BME280_pressure;Samples;Min_cycle;Max_cycle;Signal;HPM_P1;HPM_P2
2021/06/27 00:00:10;;;;;;;;;;;;;;;22.64;53.69;97277.69;5065935;28;20288;-67
2021/06/27 00:02:35;;;;;;;;;;;;;;;22.73;53.44;97282.81;5033283;28;19962;-67
2021/06/27 00:05:01;;;;;;;;;;;;;;;22.70;53.82;97285.09;5032774;28;20560;-68
2021/06/27 00:07:26;;;;;;;;;;;;;;;22.56;54.39;97287.75;5032420;28;19917;-67
2021/06/27 00:09:51;;;;;;;;;;;;;;;22.44;54.76;97278.41;5065023;28;19913;-68
2021/06/27 00:12:17;;;;;;;;;;;;;;;22.39;55.18;97272.69;5065099;28;20377;-68
2021/06/27 00:14:42;;;;;;;;;;;;;;;22.38;54.76;97281.94;5033302;28;19920;-68
2021/06/27 00:17:07;;;;;;;;;;;;;;;22.39;54.82;97279.03;5034129;28;19913;-68
2021/06/27 00:19:32;;;;;;;;;;;;;;;22.14;56.01;97275.00;5034741;28;20328;-67
2021/06/27 00:21:58;;;;;;;;;;;;;;;22.05;55.99;97277.88;5033494;28;19917;-67
2021/06/27 00:24:23;;;;;;;;;;;;;;;22.11;55.82;97270.75;5030917;28;20000;-67
2021/06/27 00:26:48;;;;;;;;;;;;;;;22.08;56.41;97279.38;5034597;28;20289;-68
2021/06/27 00:29:14;;;;;;;;;;;;;;;21.98;56.75;97270.66;5034556;28;19959;-67
2021/06/27 00:31:39;;;;;;;;;;;;;;;21.87;57.29;97272.91;5034545;28;20365;-68
2021/06/27 00:34:05;;;;;;;;;;;;;;;21.85;57.60;97266.78;5034426;28;19920;-68
2021/06/27 00:36:30;;;;;;;;;;;;;;;21.61;58.27;97278.13;5034505;28;19959;-68
2021/06/27 00:38:55;;;;;;;;;;;;;;;21.62;58.46;97285.28;5034177;28;20308;-68
2021/06/27 00:41:21;;;;;;;;;;;;;;;21.61;58.55;97280.88;5033042;28;19909;-67
2021/06/27 00:43:46;;;;;;;;;;;;;;;21.57;58.50;97285.88;5034461;28;20018;-67
2021/06/27 00:46:11;;;;;;;;;;;;;;;21.56;58.06;97295.97;5033959;28;19913;-68
2021/06/27 00:48:36;;;;;;;;;;;;;;;21.63;57.46;97295.19;5033065;28;19963;-67
2021/06/27 00:51:02;;;;;;;;;;;;;;;21.76;57.10;97300.78;5032953;28;20254;-68
2021/06/27 00:53:27;;;;;;;;;;;;;;;21.72;56.95;97294.03;5033134;28;20272;-68
2021/06/27 00:55:56;;;;;;;;;;;;;;;21.74;56.73;97300.16;5034502;28;20030;-68
2021/06/27 00:58:28;;;;;;;;;;;;;;;21.65;57.11;97296.69;5033049;28;19913;-68
2021/06/27 01:00:53;;;;;;;;;;;;;;;21.62;57.01;97299.81;5036546;28;19924;-67
2021/06/27 01:03:19;;;;;;;;;;;;;;;21.53;57.84;97296.34;5033432;28;19913;-67
2021/06/27 01:05:44;;;;;;;;;;;;;;;21.40;58.13;97301.66;5032487;28;19917;-66
2021/06/27 01:08:09;;;;;;;;;;;;;;;21.52;58.04;97302.00;5033770;28;20004;-66
2021/06/27 01:10:35;;;;;;;;;;;;;;;21.28;58.77;97298.56;5032361;28;20353;-66
2021/06/27 01:13:00;;;;;;;;;;;;;;;21.36;58.28;97294.88;5032285;28;20284;-67
2021/06/27 01:15:25;;;;;;;;;;;;;;;21.34;57.84;97289.59;5033804;28;19982;-66
2021/06/27 01:17:53;;;;;;;;;;;;;;;21.28;58.31;97289.53;5032602;28;19913;-67
2021/06/27 01:20:21;;;;;;;;;;;;;;;21.24;57.92;97287.19;5033600;28;19912;-66
2021/06/27 01:22:47;;;;;;;;;;;;;;;21.33;57.16;97274.22;5033286;28;19971;-67
2021/06/27 01:25:13;;;;;;;;;;;;;;;21.52;56.46;97280.94;5032408;28;19912;-66
2021/06/27 01:27:38;;;;;;;;;;;;;;;21.65;55.49;97276.69;5032294;28;19992;-67
2021/06/27 01:30:05;;;;;;;;;;;;;;;21.67;55.69;97272.72;5031468;28;19962;-67
2021/06/27 01:32:31;;;;;;;;;;;;;;;21.68;55.79;97273.56;5033520;28;20381;-67
2021/06/27 01:34:56;;;;;;;;;;;;;;;21.72;55.44;97266.66;5033868;28;20373;-67
2021/06/27 01:37:21;;;;;;;;;;;;;;;21.78;55.14;97270.47;5034072;28;19916;-67
2021/06/27 01:39:46;;;;;;;;;;;;;;;21.83;55.30;97273.47;5031927;28;19928;-67
2021/06/27 01:42:12;;;;;;;;;;;;;;;22.02;54.51;97270.09;5031626;28;19935;-67
2021/06/27 01:44:37;;;;;;;;;;;;;;;22.11;54.23;97268.03;5032927;28;20409;-67
2021/06/27 01:47:02;;;;;;;;;;;;;;;22.05;54.76;97257.88;5033669;28;19920;-67
2021/06/27 01:49:28;;;;;;;;;;;;;;;21.81;55.78;97265.47;5033593;28;20365;-67
2021/06/27 01:51:53;;;;;;;;;;;;;;;21.87;55.78;97269.31;5033621;28;19919;-67
2021/06/27 01:54:18;;;;;;;;;;;;;;;21.90;56.00;97267.03;5033561;28;20332;-67
2021/06/27 01:56:44;;;;;;;;;;;;;;;21.78;56.80;97273.22;5032733;28;19952;-67
2021/06/27 01:59:09;;;;;;;;;;;;;;;21.68;56.97;97266.19;5033524;28;19920;-66
2021/06/27 02:01:35;;;;;;;;;;;;;;;21.31;58.51;97286.41;5033809;28;19920;-66
2021/06/27 02:04:00;;;;;;;;;;;;;;;21.18;58.83;97285.22;5032550;28;19963;-67
2021/06/27 02:06:26;;;;;;;;;;;;;;;21.17;58.64;97282.69;5033612;28;19913;-66
2021/06/27 02:08:52;;;;;;;;;;;;;;;21.15;59.01;97285.59;5033498;28;20010;-67
2021/06/27 02:11:18;;;;;;;;;;;;;;;21.16;58.55;97283.72;5033299;28;19913;-67
2021/06/27 02:13:44;;;;;;;;;;;;;;;21.05;59.69;97287.78;5032302;28;19913;-68
2021/06/27 02:16:09;;;;;;;;;;;;;;;21.01;59.93;97291.94;5015642;28;19913;-67
2021/06/27 02:18:36;;;;;;;;;;;;;;;20.90;60.15;97285.09;5033929;28;19931;-67
2021/06/27 02:21:02;;;;;;;;;;;;;;;21.01;59.82;97281.84;5031936;28;19952;-67
2021/06/27 02:23:28;;;;;;;;;;;;;;;20.94;58.60;97258.19;5033628;28;19999;-67
2021/06/27 02:25:53;;;;;;;;;;;;;;;21.13;57.79;97264.97;5032127;28;20405;-67
2021/06/27 02:28:19;;;;;;;;;;;;;;;21.12;58.09;97261.34;5032237;28;19979;-67
2021/06/27 02:30:44;;;;;;;;;;;;;;;21.07;58.17;97264.69;5037145;28;19916;-67
2021/06/27 02:33:09;;;;;;;;;;;;;;;21.04;58.67;97262.31;5036527;28;19916;-67
2021/06/27 02:35:35;;;;;;;;;;;;;;;21.12;58.29;97264.09;5036169;28;19978;-67
2021/06/27 02:38:00;;;;;;;;;;;;;;;21.17;58.43;97264.38;5037399;28;19913;-67
2021/06/27 02:40:25;;;;;;;;;;;;;;;20.93;59.76;97259.25;5035770;28;19913;-66
2021/06/27 02:42:51;;;;;;;;;;;;;;;20.71;60.74;97264.63;5037276;28;20250;-67
2021/06/27 02:45:16;;;;;;;;;;;;;;;20.58;61.60;97270.75;5036930;28;20286;-67
2021/06/27 02:47:42;;;;;;;;;;;;;;;20.50;61.88;97271.69;5037228;28;19958;-67
2021/06/27 02:50:08;;;;;;;;;;;;;;;20.44;62.10;97268.84;5036902;28;19913;-67
2021/06/27 02:52:34;;;;;;;;;;;;;;;20.67;60.82;97291.47;5035517;28;19913;-67
2021/06/27 02:54:59;;;;;;;;;;;;;;;21.00;59.71;97287.50;5037032;28;19913;-66
2021/06/27 02:57:24;;;;;;;;;;;;;;;20.95;59.83;97271.69;5036877;28;19921;-66
2021/06/27 02:59:49;;;;;;;;;;;;;;;20.79;60.70;97274.63;5036686;28;19921;-66
2021/06/27 03:02:15;;;;;;;;;;;;;;;20.75;60.46;97274.13;5036802;28;19913;-66
2021/06/27 03:04:40;;;;;;;;;;;;;;;20.80;60.57;97279.88;5036784;28;19913;-66
2021/06/27 03:07:05;;;;;;;;;;;;;;;20.83;60.46;97279.53;5036837;28;20015;-66
2021/06/27 03:09:31;;;;;;;;;;;;;;;20.76;60.62;97278.56;5035379;28;19916;-67
2021/06/27 03:11:56;;;;;;;;;;;;;;;20.89;59.95;97278.75;5036688;28;20312;-66
2021/06/27 03:14:21;;;;;;;;;;;;;;;21.12;59.21;97276.94;5035182;28;19912;-66
2021/06/27 03:16:46;;;;;;;;;;;;;;;20.96;60.07;97273.38;5035123;28;19956;-67
2021/06/27 03:19:14;;;;;;;;;;;;;;;21.12;59.19;97255.88;5036148;28;19917;-66
2021/06/27 03:21:39;;;;;;;;;;;;;;;21.02;60.27;97271.78;5036182;28;19940;-67
2021/06/27 03:24:05;;;;;;;;;;;;;;;20.78;60.18;97275.66;5034962;28;20373;-67
2021/06/27 03:26:30;;;;;;;;;;;;;;;20.81;59.99;97281.59;5036368;28;19920;-67
2021/06/27 03:28:55;;;;;;;;;;;;;;;20.59;61.14;97286.13;5036407;28;19920;-67
2021/06/27 03:31:21;;;;;;;;;;;;;;;20.63;60.44;97281.97;5036613;28;20326;-67
2021/06/27 03:33:46;;;;;;;;;;;;;;;20.67;60.24;97282.41;5034453;28;19920;-66
2021/06/27 03:36:11;;;;;;;;;;;;;;;20.65;60.62;97279.03;5035940;28;20381;-67
2021/06/27 03:38:50;;;;;;;;;;;;;;;20.54;60.86;97280.34;5035889;28;19913;-67
2021/06/27 03:41:21;;;;;;;;;;;;;;;20.50;60.97;97274.41;5035059;28;19917;-67
2021/06/27 03:43:46;;;;;;;;;;;;;;;20.44;61.35;97274.31;5035798;28;19920;-67
2021/06/27 03:46:12;;;;;;;;;;;;;;;20.36;61.40;97277.97;5035802;28;19913;-67
2021/06/27 03:48:37;;;;;;;;;;;;;;;20.39;61.24;97281.19;5036123;28;19920;-67
2021/06/27 03:51:03;;;;;;;;;;;;;;;20.57;60.61;97269.88;5033881;28;19913;-67
2021/06/27 03:53:28;;;;;;;;;;;;;;;20.67;59.80;97275.09;5033881;28;19913;-67
2021/06/27 03:55:57;;;;;;;;;;;;;;;20.71;59.31;97278.28;5033860;28;19913;-67
2021/06/27 03:58:22;;;;;;;;;;;;;;;20.85;58.79;97269.25;5032690;28;19913;-67
2021/06/27 04:00:47;;;;;;;;;;;;;;;21.05;58.22;97261.28;5033681;28;19952;-66
2021/06/27 04:03:13;;;;;;;;;;;;;;;21.19;56.90;97256.84;5033787;28;20365;-67
2021/06/27 04:05:38;;;;;;;;;;;;;;;21.26;56.09;97256.91;5033995;28;19913;-66
2021/06/27 04:08:03;;;;;;;;;;;;;;;21.35;56.00;97255.75;5035447;28;19920;-66
2021/06/27 04:10:29;;;;;;;;;;;;;;;21.32;55.27;97258.00;5035555;28;19957;-66
2021/06/27 04:12:54;;;;;;;;;;;;;;;21.34;55.10;97251.31;5034102;28;19917;-66
2021/06/27 04:15:19;;;;;;;;;;;;;;;21.37;55.08;97253.66;5035453;28;19960;-67
2021/06/27 04:17:44;;;;;;;;;;;;;;;21.38;54.57;97251.78;5035463;28;19920;-67
2021/06/27 04:20:10;;;;;;;;;;;;;;;21.41;54.84;97254.09;5035442;28;20366;-67
2021/06/27 04:22:36;;;;;;;;;;;;;;;21.35;55.36;97269.41;5034831;28;19971;-67
2021/06/27 04:25:02;;;;;;;;;;;;;;;21.23;55.80;97262.75;5034138;28;20277;-67
2021/06/27 04:27:28;;;;;;;;;;;;;;;21.23;56.06;97271.81;5033879;28;19913;-67
2021/06/27 04:29:53;;;;;;;;;;;;;;;21.01;57.83;97281.00;5032163;28;19913;-67
2021/06/27 04:32:18;;;;;;;;;;;;;;;21.02;56.85;97283.53;5033496;28;19917;-67
2021/06/27 04:34:44;;;;;;;;;;;;;;;21.11;57.45;97280.69;5033847;28;19919;-67
2021/06/27 04:37:09;;;;;;;;;;;;;;;21.10;57.93;97293.53;5034907;28;19913;-67
2021/06/27 04:39:34;;;;;;;;;;;;;;;21.16;57.60;97286.44;5067205;28;19917;-67
2021/06/27 04:42:00;;;;;;;;;;;;;;;21.16;57.55;97281.81;5034911;28;19916;-67
2021/06/27 04:44:25;;;;;;;;;;;;;;;21.19;57.03;97289.66;5034669;28;19971;-67
2021/06/27 04:46:50;;;;;;;;;;;;;;;21.03;58.69;97281.66;5033992;28;19929;-67
2021/06/27 04:49:16;;;;;;;;;;;;;;;20.96;59.42;97286.19;5033270;28;19954;-67
2021/06/27 04:51:41;;;;;;;;;;;;;;;20.95;59.62;97284.50;5033680;28;19920;-66
2021/06/27 04:54:06;;;;;;;;;;;;;;;20.89;59.16;97284.22;5034015;28;20364;-66
2021/06/27 04:56:32;;;;;;;;;;;;;;;20.97;58.86;97296.09;5034017;28;19966;-67
2021/06/27 04:58:57;;;;;;;;;;;;;;;21.08;56.59;97306.53;5057576;28;19944;-66
2021/06/27 05:01:22;;;;;;;;;;;;;;;21.26;56.51;97316.22;5032530;28;19996;-66
2021/06/27 05:03:48;;;;;;;;;;;;;;;21.43;55.32;97304.00;5033759;28;19913;-66
2021/06/27 05:06:13;;;;;;;;;;;;;;;21.45;56.58;97304.66;5033988;28;20011;-66
2021/06/27 05:08:38;;;;;;;;;;;;;;;21.07;58.86;97299.38;5034437;28;20349;-67
2021/06/27 05:11:03;;;;;;;;;;;;;;;20.96;59.70;97297.97;5034283;28;19913;-67
2021/06/27 05:13:29;;;;;;;;;;;;;;;20.93;58.96;97287.44;5034466;28;20373;-67
2021/06/27 05:15:54;;;;;;;;;;;;;;;21.08;57.60;97287.41;5066051;28;20016;-67
2021/06/27 05:18:20;;;;;;;;;;;;;;;21.39;54.78;97278.06;5034699;28;20242;-67
2021/06/27 05:20:47;;;;;;;;;;;;;;;21.54;54.42;97292.59;5033805;28;19917;-67
2021/06/27 05:23:12;;;;;;;;;;;;;;;21.65;53.93;97293.13;5057792;28;19929;-67
2021/06/27 05:25:38;;;;;;;;;;;;;;;21.79;53.46;97283.13;5024863;28;19917;-67
2021/06/27 05:28:03;;;;;;;;;;;;;;;21.87;53.07;97289.34;5031408;28;19924;-70
2021/06/27 05:30:28;;;;;;;;;;;;;;;21.88;53.37;97290.16;5032191;28;20007;-66
2021/06/27 05:32:54;;;;;;;;;;;;;;;21.85;53.38;97285.94;5032217;28;19962;-66
2021/06/27 05:35:19;;;;;;;;;;;;;;;21.67;57.02;97310.19;5033214;28;19963;-66
2021/06/27 05:37:44;;;;;;;;;;;;;;;21.48;58.81;97317.94;5032772;28;19913;-64
2021/06/27 05:40:10;;;;;;;;;;;;;;;21.40;59.04;97321.63;5032392;28;20289;-65
2021/06/27 05:42:35;;;;;;;;;;;;;;;21.48;59.42;97319.84;5032611;28;19913;-66
2021/06/27 05:45:01;;;;;;;;;;;;;;;21.53;59.95;97320.13;5031200;28;19917;-66
2021/06/27 05:47:26;;;;;;;;;;;;;;;21.56;59.93;97323.31;5032670;28;20427;-64
2021/06/27 05:49:51;;;;;;;;;;;;;;;21.60;59.64;97321.06;5031346;28;19917;-65
2021/06/27 05:52:16;;;;;;;;;;;;;;;21.68;59.94;97322.81;5030397;28;19921;-65
2021/06/27 05:54:43;;;;;;;;;;;;;;;21.74;60.22;97324.78;5030381;28;19967;-65
2021/06/27 05:57:09;;;;;;;;;;;;;;;21.99;59.69;97329.84;5030359;28;19921;-64
2021/06/27 05:59:35;;;;;;;;;;;;;;;21.97;60.22;97340.19;5014253;28;19921;-67
2021/06/27 06:02:00;;;;;;;;;;;;;;;21.81;61.58;97339.38;5032693;28;19921;-68
2021/06/27 06:04:25;;;;;;;;;;;;;;;21.75;61.65;97340.16;5033132;28;19923;-67
2021/06/27 06:06:51;;;;;;;;;;;;;;;21.81;62.63;97333.06;5033369;28;19967;-66
2021/06/27 06:09:16;;;;;;;;;;;;;;;21.80;63.25;97334.94;5032939;28;20007;-66
2021/06/27 06:11:41;;;;;;;;;;;;;;;21.93;60.57;97328.75;5031900;28;20465;-66
2021/06/27 06:14:07;;;;;;;;;;;;;;;22.01;59.99;97323.16;5031320;28;20385;-66
2021/06/27 06:16:32;;;;;;;;;;;;;;;21.93;61.33;97326.03;5033068;28;19952;-68
2021/06/27 06:18:57;;;;;;;;;;;;;;;21.58;64.40;97336.84;5033641;28;19913;-68
2021/06/27 06:21:23;;;;;;;;;;;;;;;21.44;65.16;97327.56;5033565;28;19924;-67
2021/06/27 06:23:48;;;;;;;;;;;;;;;21.46;65.44;97339.19;5033881;28;19920;-66
2021/06/27 06:26:13;;;;;;;;;;;;;;;21.57;64.42;97330.50;5034492;28;19913;-67
2021/06/27 06:28:39;;;;;;;;;;;;;;;21.63;65.11;97334.34;5035111;28;20511;-67
2021/06/27 06:31:04;;;;;;;;;;;;;;;21.77;64.77;97340.81;5034176;28;20387;-67
2021/06/27 06:33:29;;;;;;;;;;;;;;;21.90;63.97;97340.94;5036830;28;19913;-67
2021/06/27 06:35:55;;;;;;;;;;;;;;;22.10;62.76;97333.94;5036857;28;19917;-67
2021/06/27 06:38:20;;;;;;;;;;;;;;;22.24;61.78;97331.13;5036120;28;19919;-67
2021/06/27 06:40:45;;;;;;;;;;;;;;;22.30;61.29;97334.13;5034870;28;20003;-67
2021/06/27 06:43:11;;;;;;;;;;;;;;;22.33;62.69;97333.75;5035965;28;20289;-67
2021/06/27 06:45:36;;;;;;;;;;;;;;;22.49;61.47;97335.34;5037022;28;19913;-67
2021/06/27 06:48:01;;;;;;;;;;;;;;;22.67;60.09;97335.69;5037004;28;20052;-68
2021/06/27 06:50:27;;;;;;;;;;;;;;;22.77;57.17;97326.25;5035528;28;19913;-67
2021/06/27 06:52:52;;;;;;;;;;;;;;;23.01;55.62;97330.41;5036829;28;19966;-67
2021/06/27 06:55:17;;;;;;;;;;;;;;;23.20;54.32;97328.84;5037013;28;19936;-67
2021/06/27 06:57:44;;;;;;;;;;;;;;;23.27;52.09;97332.47;5036024;28;19912;-67
2021/06/27 07:00:10;;;;;;;;;;;;;;;23.23;51.84;97340.25;5035210;28;19967;-67
2021/06/27 07:02:38;;;;;;;;;;;;;;;23.02;53.77;97340.31;5037106;28;20316;-67
2021/06/27 07:05:04;;;;;;;;;;;;;;;23.24;53.45;97341.94;5036698;28;19967;-67
2021/06/27 07:07:29;;;;;;;;;;;;;;;23.38;52.96;97337.38;5035298;28;19920;-67
2021/06/27 07:09:55;;;;;;;;;;;;;;;23.51;52.24;97335.72;5036883;28;19913;-67
2021/06/27 07:12:20;;;;;;;;;;;;;;;23.50;51.25;97340.34;5036293;28;19960;-67
2021/06/27 07:14:45;;;;;;;;;;;;;;;23.34;51.77;97335.22;5036558;28;19919;-67
2021/06/27 07:17:10;;;;;;;;;;;;;;;23.56;51.73;97350.50;5036349;28;20294;-67
2021/06/27 07:19:36;;;;;;;;;;;;;;;23.52;50.76;97348.41;5036551;28;20012;-67
2021/06/27 07:22:01;;;;;;;;;;;;;;;23.74;51.27;97349.06;5036000;28;20293;-67
2021/06/27 07:24:26;;;;;;;;;;;;;;;23.86;51.70;97349.31;5035179;28;20285;-67
2021/06/27 07:26:52;;;;;;;;;;;;;;;23.77;51.52;97343.19;5036141;28;20360;-68
2021/06/27 07:29:17;;;;;;;;;;;;;;;23.81;52.18;97346.34;5036458;28;19913;-67
2021/06/27 07:31:42;;;;;;;;;;;;;;;23.79;51.03;97337.47;5036147;28;19975;-67
2021/06/27 07:34:07;;;;;;;;;;;;;;;23.84;50.53;97335.81;5036076;28;19912;-67
2021/06/27 07:36:33;;;;;;;;;;;;;;;23.92;49.13;97334.78;5036268;28;19963;-67
2021/06/27 07:38:58;;;;;;;;;;;;;;;23.90;50.20;97340.50;5035919;28;19913;-67
2021/06/27 07:41:23;;;;;;;;;;;;;;;24.09;50.15;97337.97;5035845;28;20293;-67
2021/06/27 07:43:50;;;;;;;;;;;;;;;24.20;49.75;97344.75;5034470;28;19913;-67
2021/06/27 07:46:16;;;;;;;;;;;;;;;24.19;49.95;97338.41;5035585;28;20074;-67
2021/06/27 07:48:41;;;;;;;;;;;;;;;24.29;48.08;97334.38;5035676;28;20341;-67
2021/06/27 07:51:06;;;;;;;;;;;;;;;24.37;49.22;97334.16;5035055;28;20007;-67
2021/06/27 07:53:31;;;;;;;;;;;;;;;24.36;49.52;97333.34;5035573;28;19913;-67
2021/06/27 07:55:57;;;;;;;;;;;;;;;24.38;48.86;97327.63;5034781;28;19920;-67
2021/06/27 07:58:22;;;;;;;;;;;;;;;24.43;48.98;97327.00;5035993;28;20341;-67
2021/06/27 08:00:47;;;;;;;;;;;;;;;24.39;48.77;97330.16;5035515;28;19960;-66
2021/06/27 08:03:13;;;;;;;;;;;;;;;24.52;49.44;97337.56;5035610;28;20289;-66
2021/06/27 08:05:38;;;;;;;;;;;;;;;24.65;48.50;97334.00;5035276;28;19974;-66
2021/06/27 08:08:03;;;;;;;;;;;;;;;24.67;48.53;97333.78;5035340;28;19920;-66
2021/06/27 08:10:29;;;;;;;;;;;;;;;24.92;48.02;97338.56;5035505;28;19963;-66
2021/06/27 08:12:54;;;;;;;;;;;;;;;24.97;48.76;97338.78;5034305;28;20003;-66
2021/06/27 08:15:20;;;;;;;;;;;;;;;25.12;48.12;97339.38;5035532;28;19913;-66
2021/06/27 08:17:49;;;;;;;;;;;;;;;25.20;47.43;97339.13;5035550;28;20301;-66
2021/06/27 08:20:14;;;;;;;;;;;;;;;25.18;46.20;97330.25;5034958;28;19913;-66
2021/06/27 08:22:39;;;;;;;;;;;;;;;25.18;47.02;97334.91;5035114;28;19916;-66
2021/06/27 08:25:05;;;;;;;;;;;;;;;25.30;46.84;97340.59;5035030;28;19987;-66
2021/06/27 08:27:31;;;;;;;;;;;;;;;25.41;46.38;97334.41;5034431;28;19913;-66
2021/06/27 08:29:56;;;;;;;;;;;;;;;25.48;45.72;97340.75;5035194;28;19916;-66
2021/06/27 08:32:21;;;;;;;;;;;;;;;25.49;45.50;97330.56;5034815;28;19913;-66
2021/06/27 08:34:46;;;;;;;;;;;;;;;25.45;45.16;97340.34;5033783;28;19920;-66
2021/06/27 08:37:12;;;;;;;;;;;;;;;25.45;45.40;97323.81;5035071;28;20015;-66
2021/06/27 08:39:37;;;;;;;;;;;;;;;25.52;45.63;97333.75;5035381;28;19913;-67
2021/06/27 08:42:02;;;;;;;;;;;;;;;25.59;45.64;97335.59;5034600;28;20011;-67
2021/06/27 08:44:28;;;;;;;;;;;;;;;25.59;44.80;97330.09;5034919;28;19913;-67
2021/06/27 08:46:53;;;;;;;;;;;;;;;25.70;45.23;97329.41;5033481;28;19920;-67
2021/06/27 08:49:18;;;;;;;;;;;;;;;25.64;45.07;97338.53;5033245;28;20297;-66
2021/06/27 08:51:43;;;;;;;;;;;;;;;25.75;44.21;97337.84;5033621;28;19920;-66
2021/06/27 08:54:09;;;;;;;;;;;;;;;25.61;44.48;97339.81;5034542;28;20353;-67
2021/06/27 08:56:35;;;;;;;;;;;;;;;25.78;43.91;97334.66;5034700;28;19917;-67
2021/06/27 08:59:00;;;;;;;;;;;;;;;25.73;44.65;97327.06;5033394;28;19970;-66
2021/06/27 09:01:26;;;;;;;;;;;;;;;25.88;44.02;97331.41;5034615;28;20022;-66
2021/06/27 09:03:51;;;;;;;;;;;;;;;25.88;43.57;97334.16;5034659;28;19966;-66
2021/06/27 09:06:26;;;;;;;;;;;;;;;25.93;43.30;97339.00;5034164;28;20373;-66
2021/06/27 09:09:11;;;;;;;;;;;;;;;25.81;43.50;97336.94;5034786;28;19913;-66
2021/06/27 09:11:36;;;;;;;;;;;;;;;25.91;43.76;97344.75;5034048;28;19917;-66
2021/06/27 09:14:02;;;;;;;;;;;;;;;25.98;44.15;97342.78;5033176;28;19913;-66
2021/06/27 09:16:27;;;;;;;;;;;;;;;25.79;44.50;97339.09;5032845;28;19913;-66
2021/06/27 09:18:52;;;;;;;;;;;;;;;25.91;45.43;97333.72;5034448;28;19913;-66
2021/06/27 09:21:19;;;;;;;;;;;;;;;26.05;44.91;97331.75;5032675;28;19923;-66
2021/06/27 09:23:47;;;;;;;;;;;;;;;26.18;43.93;97344.59;5034022;28;20008;-66
2021/06/27 09:26:14;;;;;;;;;;;;;;;25.98;43.93;97328.19;5034186;28;19975;-66
2021/06/27 09:28:44;;;;;;;;;;;;;;;26.15;43.77;97337.63;5014178;28;20365;-66
2021/06/27 09:31:09;;;;;;;;;;;;;;;26.27;43.96;97342.41;5065169;28;20404;-68
2021/06/27 09:33:35;;;;;;;;;;;;;;;26.38;43.00;97330.66;5033109;28;19913;-67
2021/06/27 09:36:03;;;;;;;;;;;;;;;26.44;42.84;97326.16;5033396;28;20382;-67
2021/06/27 09:38:30;;;;;;;;;;;;;;;26.46;42.83;97330.38;5031514;28;19913;-68
2021/06/27 09:41:23;;;;;;;;;;;;;;;26.49;42.62;97329.06;5065673;28;20384;-67
2021/06/27 09:43:50;;;;;;;;;;;;;;;26.51;42.67;97330.53;5034639;28;19959;-67
2021/06/27 09:46:15;;;;;;;;;;;;;;;26.54;42.40;97327.31;5033859;28;19921;-67
2021/06/27 09:48:54;;;;;;;;;;;;;;;26.71;42.91;97324.88;5066106;28;19920;-67
2021/06/27 09:51:19;;;;;;;;;;;;;;;26.79;42.16;97320.09;5065199;28;19909;-67
2021/06/27 09:53:46;;;;;;;;;;;;;;;26.82;42.90;97319.66;5065805;28;19960;-68
2021/06/27 09:56:11;;;;;;;;;;;;;;;26.77;42.57;97314.81;5033191;28;19928;-67
2021/06/27 09:58:37;;;;;;;;;;;;;;;26.80;43.24;97311.59;5033752;28;19913;-67
2021/06/27 10:01:03;;;;;;;;;;;;;;;26.92;43.53;97324.66;5033643;28;19917;-67
2021/06/27 10:03:29;;;;;;;;;;;;;;;26.73;42.02;97316.34;5065751;28;19914;-67
2021/06/27 10:06:06;;;;;;;;;;;;;;;26.79;41.83;97322.88;5033414;28;19913;-67
2021/06/27 10:08:32;;;;;;;;;;;;;;;26.82;43.27;97322.44;5065798;28;19962;-67
2021/06/27 10:11:07;;;;;;;;;;;;;;;26.77;42.02;97319.50;5033653;28;20351;-67
2021/06/27 10:13:32;;;;;;;;;;;;;;;26.75;42.28;97318.88;5033565;28;20258;-68
2021/06/27 10:15:58;;;;;;;;;;;;;;;26.91;43.69;97321.03;5032137;28;19917;-69
2021/06/27 10:18:23;;;;;;;;;;;;;;;26.81;41.87;97316.06;5065449;28;19953;-68
2021/06/27 10:20:49;;;;;;;;;;;;;;;26.97;41.66;97308.25;5065682;28;19921;-68
2021/06/27 10:23:14;;;;;;;;;;;;;;;27.01;42.22;97310.31;5065422;28;19967;-68
2021/06/27 10:25:39;;;;;;;;;;;;;;;27.03;41.89;97302.66;5065303;28;20012;-68
2021/06/27 10:28:05;;;;;;;;;;;;;;;27.23;41.46;97307.94;5033322;28;19920;-68
2021/06/27 10:30:30;;;;;;;;;;;;;;;27.32;41.34;97313.16;5033523;28;19908;-68
2021/06/27 10:32:55;;;;;;;;;;;;;;;27.49;41.33;97297.66;5065547;28;19917;-68
2021/06/27 10:35:21;;;;;;;;;;;;;;;27.27;41.01;97305.53;5033750;28;20281;-68
2021/06/27 10:37:46;;;;;;;;;;;;;;;27.11;42.50;97304.28;5033382;28;19909;-69
2021/06/27 10:40:13;;;;;;;;;;;;;;;27.29;41.83;97316.38;5065239;28;20380;-68
2021/06/27 10:42:47;;;;;;;;;;;;;;;27.27;42.46;97310.22;5065443;28;19963;-68
2021/06/27 10:45:12;;;;;;;;;;;;;;;27.23;40.99;97310.69;5033138;28;19913;-68
2021/06/27 10:47:37;;;;;;;;;;;;;;;27.25;40.36;97306.88;5065539;28;19920;-68
2021/06/27 10:50:08;;;;;;;;;;;;;;;27.42;40.37;97309.84;5066011;28;19909;-68
2021/06/27 10:52:53;;;;;;;;;;;;;;;27.61;41.37;97305.16;5037099;28;19913;-68
2021/06/27 10:55:18;;;;;;;;;;;;;;;27.85;40.08;97303.31;5036947;28;20357;-70
2021/06/27 10:57:53;;;;;;;;;;;;;;;27.58;39.89;97300.09;5036754;28;20050;-67
2021/06/27 11:00:18;;;;;;;;;;;;;;;27.43;40.18;97304.09;5036659;28;19916;-66
2021/06/27 11:02:43;;;;;;;;;;;;;;;27.25;39.24;97301.34;5069263;28;19913;-66
2021/06/27 11:05:33;;;;;;;;;;;;;;;27.40;39.33;97299.88;5036604;28;19928;-66
2021/06/27 11:07:59;;;;;;;;;;;;;;;27.45;39.31;97299.19;5035384;28;20341;-66
2021/06/27 11:10:24;;;;;;;;;;;;;;;27.34;40.27;97297.16;5068746;28;19952;-66
2021/06/27 11:12:59;;;;;;;;;;;;;;;27.21;40.19;97290.75;5036472;28;20366;-66
2021/06/27 11:15:25;;;;;;;;;;;;;;;27.43;38.79;97284.75;5037097;28;19913;-66
2021/06/27 11:17:54;;;;;;;;;;;;;;;27.55;38.69;97284.81;5036612;28;19913;-66
2021/06/27 11:20:20;;;;;;;;;;;;;;;27.72;39.30;97279.47;5036258;28;20002;-66
2021/06/27 11:22:49;;;;;;;;;;;;;;;27.49;39.72;97275.56;5068289;28;19984;-66
2021/06/27 11:25:33;;;;;;;;;;;;;;;27.63;40.34;97283.66;5068610;28;20376;-67
2021/06/27 11:27:58;;;;;;;;;;;;;;;27.47;40.21;97282.38;5036113;28;19920;-66
2021/06/27 11:30:25;;;;;;;;;;;;;;;27.31;40.66;97293.00;5068219;28;19912;-66
2021/06/27 11:32:51;;;;;;;;;;;;;;;27.45;40.35;97287.31;5036553;28;20396;-66
2021/06/27 11:35:38;;;;;;;;;;;;;;;27.80;40.74;97279.16;5068393;28;19913;-66
2021/06/27 11:38:04;;;;;;;;;;;;;;;27.95;37.98;97283.41;5036608;28;20329;-66
2021/06/27 11:40:39;;;;;;;;;;;;;;;28.29;39.06;97279.03;5068328;28;20006;-67
2021/06/27 11:43:04;;;;;;;;;;;;;;;28.53;38.57;97284.59;5068135;28;19919;-67
2021/06/27 11:45:29;;;;;;;;;;;;;;;28.62;36.51;97283.16;5034590;28;19913;-67
2021/06/27 11:47:55;;;;;;;;;;;;;;;28.74;36.88;97283.16;5036004;28;19924;-68
2021/06/27 11:50:30;;;;;;;;;;;;;;;28.67;37.85;97279.69;5035727;28;20357;-69
2021/06/27 11:52:56;;;;;;;;;;;;;;;28.11;38.85;97282.72;5036023;28;19917;-67
2021/06/27 11:55:28;;;;;;;;;;;;;;;28.03;39.38;97283.94;5035956;28;20286;-67
2021/06/27 11:57:53;;;;;;;;;;;;;;;28.34;37.31;97279.16;5035670;28;19913;-67
2021/06/27 12:00:19;;;;;;;;;;;;;;;28.63;39.16;97282.03;5035777;28;19920;-67
2021/06/27 12:02:44;;;;;;;;;;;;;;;28.99;38.67;97282.06;5034972;28;19920;-67
2021/06/27 12:05:10;;;;;;;;;;;;;;;29.00;37.64;97280.97;5035659;28;19964;-67
2021/06/27 12:07:42;;;;;;;;;;;;;;;29.01;37.08;97280.72;5067516;28;20004;-67
2021/06/27 12:10:17;;;;;;;;;;;;;;;28.99;37.84;97273.75;5035350;28;19963;-67
2021/06/27 12:12:44;;;;;;;;;;;;;;;28.78;36.59;97272.44;5034135;28;20381;-67
2021/06/27 12:15:19;;;;;;;;;;;;;;;29.15;37.33;97278.50;5035468;28;19913;-67
2021/06/27 12:17:46;;;;;;;;;;;;;;;29.49;37.06;97270.38;5035591;28;19913;-67
2021/06/27 12:20:12;;;;;;;;;;;;;;;29.53;36.58;97265.16;5035303;28;19913;-67
2021/06/27 12:22:56;;;;;;;;;;;;;;;29.29;35.81;97268.06;5034999;28;20344;-67
2021/06/27 12:25:25;;;;;;;;;;;;;;;29.41;36.49;97254.16;5035410;28;19920;-67
2021/06/27 12:27:51;;;;;;;;;;;;;;;29.64;35.65;97253.22;5035277;28;20285;-67
2021/06/27 12:30:17;;;;;;;;;;;;;;;29.23;35.69;97257.91;5035061;28;20365;-67
2021/06/27 12:32:58;;;;;;;;;;;;;;;29.15;35.79;97253.59;5066846;28;19939;-67
2021/06/27 12:35:23;;;;;;;;;;;;;;;29.18;35.02;97258.66;5035280;28;19913;-67
2021/06/27 12:37:48;;;;;;;;;;;;;;;29.51;35.33;97259.88;5066910;28;19913;-67
2021/06/27 12:40:14;;;;;;;;;;;;;;;29.48;35.45;97254.84;5035382;28;19983;-67
2021/06/27 12:42:39;;;;;;;;;;;;;;;29.61;35.15;97253.72;5066930;28;19920;-68